createdAt,value
2018-06-09T00:02:04.981Z,21.60
2018-06-09T00:04:34.345Z,21.60
2018-06-09T00:07:03.381Z,21.50
2018-06-09T00:09:32.793Z,21.60
2018-06-09T00:14:30.325Z,21.60
2018-06-09T00:16:59.261Z,21.70
2018-06-09T00:21:56.737Z,21.80
2018-06-09T00:26:54.146Z,21.80
2018-06-09T00:29:23.099Z,21.70
2018-06-09T00:34:20.905Z,21.60
2018-06-09T00:36:49.826Z,21.60
2018-06-09T00:39:18.758Z,21.60
2018-06-09T00:41:47.961Z,21.60
2018-06-09T00:46:45.356Z,21.40
2018-06-09T00:49:14.426Z,21.40
2018-06-09T00:51:43.630Z,21.30
2018-06-09T00:54:12.570Z,21.20
2018-06-09T00:56:45.650Z,21.20
2018-06-09T00:59:14.645Z,21.20
2018-06-09T01:01:43.626Z,21.10
2018-06-09T01:04:12.625Z,21.00
2018-06-09T01:06:41.630Z,21.00
2018-06-09T01:09:10.607Z,21.00
2018-06-09T01:11:39.618Z,21.00
2018-06-09T01:16:37.214Z,20.90
2018-06-09T01:19:06.237Z,20.80
2018-06-09T01:21:35.206Z,21.00
2018-06-09T01:24:04.386Z,21.00
2018-06-09T01:26:33.315Z,21.00
2018-06-09T01:29:02.334Z,21.00
2018-06-09T01:31:31.467Z,21.10
2018-06-09T01:34:00.469Z,21.10
2018-06-09T01:36:29.418Z,21.20
2018-06-09T01:38:58.433Z,21.20
2018-06-09T01:43:55.784Z,21.00
2018-06-09T01:46:24.734Z,21.10
2018-06-09T01:48:53.638Z,21.10
2018-06-09T01:51:22.599Z,21.00
2018-06-09T01:53:51.698Z,21.00
2018-06-09T01:56:20.947Z,20.90
2018-06-09T01:58:49.969Z,20.80
2018-06-09T02:03:47.596Z,20.60
2018-06-09T02:06:16.574Z,20.50
2018-06-09T02:08:45.718Z,20.50
2018-06-09T02:11:14.708Z,20.40
2018-06-09T02:13:43.701Z,20.30
2018-06-09T02:16:12.698Z,20.30
2018-06-09T02:18:41.822Z,20.30
2018-06-09T02:21:10.869Z,20.30
2018-06-09T02:23:40.095Z,20.30
2018-06-09T02:26:09.208Z,20.20
2018-06-09T02:28:38.485Z,20.20
2018-06-09T02:31:07.654Z,20.20
2018-06-09T02:33:36.711Z,20.20
2018-06-09T02:36:05.793Z,20.20
2018-06-09T02:38:34.737Z,20.20
2018-06-09T02:41:03.653Z,20.30
2018-06-09T02:43:32.670Z,20.40
2018-06-09T02:46:01.973Z,20.40
2018-06-09T02:48:31.005Z,20.60
2018-06-09T02:51:00.238Z,20.70
2018-06-09T02:53:29.302Z,20.70
2018-06-09T02:55:58.383Z,20.70
2018-06-09T02:58:27.430Z,20.80
2018-06-09T03:00:56.426Z,20.90
2018-06-09T03:03:25.620Z,21.00
2018-06-09T03:05:54.670Z,21.10
2018-06-09T03:08:23.725Z,21.10
2018-06-09T03:10:52.703Z,21.10
2018-06-09T03:13:21.711Z,21.20
2018-06-09T03:18:26.007Z,21.00
2018-06-09T03:20:55.109Z,21.00
2018-06-09T03:23:24.274Z,20.90
2018-06-09T03:28:21.657Z,20.80
2018-06-09T03:30:50.601Z,21.00
2018-06-09T03:33:19.655Z,21.00
2018-06-09T03:38:17.671Z,21.10
2018-06-09T03:40:46.584Z,21.10
2018-06-09T03:43:15.526Z,21.10
2018-06-09T03:45:44.447Z,21.20
2018-06-09T03:48:13.478Z,21.00
2018-06-09T03:50:42.445Z,21.00
2018-06-09T03:55:39.859Z,21.20
2018-06-09T03:58:08.876Z,21.10
2018-06-09T04:00:37.938Z,21.20
2018-06-09T04:03:06.952Z,21.30
2018-06-09T04:05:36.112Z,21.30
2018-06-09T04:08:05.213Z,21.30
2018-06-09T04:10:34.126Z,21.30
2018-06-09T04:13:03.151Z,21.30
2018-06-09T04:15:32.121Z,21.30
2018-06-09T04:20:29.522Z,21.60
2018-06-09T04:22:58.510Z,21.80
2018-06-09T04:25:27.468Z,22.00
2018-06-09T04:27:56.470Z,22.10
2018-06-09T04:30:25.409Z,22.30
2018-06-09T04:32:54.391Z,22.40
2018-06-09T04:35:23.382Z,22.40
2018-06-09T04:37:52.373Z,22.30
2018-06-09T04:40:21.319Z,22.30
2018-06-09T04:42:50.241Z,22.30
2018-06-09T04:45:19.333Z,22.40
2018-06-09T04:47:48.374Z,22.30
2018-06-09T04:50:17.358Z,22.20
2018-06-09T04:55:14.836Z,22.10
2018-06-09T04:57:43.818Z,22.10
2018-06-09T05:00:12.854Z,22.10
2018-06-09T05:02:41.766Z,22.10
2018-06-09T05:05:10.885Z,22.10
2018-06-09T05:07:39.846Z,22.10
2018-06-09T05:10:08.897Z,22.20
2018-06-09T05:12:37.844Z,22.20
2018-06-09T05:15:06.811Z,22.30
2018-06-09T05:17:35.897Z,22.40
2018-06-09T05:20:04.933Z,22.60
2018-06-09T05:22:34.120Z,22.70
2018-06-09T05:25:09.956Z,22.80
2018-06-09T05:27:38.938Z,22.80
2018-06-09T05:30:07.886Z,22.90
2018-06-09T05:32:36.902Z,22.80
2018-06-09T05:35:06.093Z,22.70
2018-06-09T05:40:03.960Z,22.60
2018-06-09T05:42:32.958Z,22.60
2018-06-09T05:45:01.969Z,22.60
2018-06-09T05:47:31.035Z,22.70
2018-06-09T05:50:00.028Z,22.90
2018-06-09T05:52:29.127Z,23.10
2018-06-09T05:54:58.176Z,23.20
2018-06-09T05:57:27.210Z,23.30
2018-06-09T05:59:56.306Z,23.60
2018-06-09T06:02:25.248Z,23.90
2018-06-09T06:04:54.301Z,24.00
2018-06-09T06:07:23.302Z,24.10
2018-06-09T06:09:52.302Z,24.00
2018-06-09T06:12:21.257Z,24.20
2018-06-09T06:14:50.238Z,24.60
2018-06-09T06:17:19.277Z,24.90
2018-06-09T06:19:48.493Z,25.20
2018-06-09T06:22:17.438Z,25.30
2018-06-09T06:24:46.365Z,25.30
2018-06-09T06:27:15.317Z,25.30
2018-06-09T06:29:44.278Z,25.20
2018-06-09T06:32:13.353Z,25.20
2018-06-09T06:34:42.322Z,25.20
2018-06-09T06:37:11.320Z,25.30
2018-06-09T06:39:40.276Z,25.30
2018-06-09T06:42:09.263Z,25.20
2018-06-09T06:47:07.620Z,24.90
2018-06-09T06:49:36.554Z,24.70
2018-06-09T06:54:33.995Z,24.20
2018-06-09T06:57:03.032Z,24.20
2018-06-09T07:02:00.699Z,23.90
2018-06-09T07:04:29.641Z,23.80
2018-06-09T07:06:58.564Z,23.70
2018-06-09T07:09:27.612Z,23.60
2018-06-09T07:11:56.547Z,23.50
2018-06-09T07:16:54.407Z,23.50
2018-06-09T07:19:23.482Z,23.40
2018-06-09T07:21:52.430Z,23.40
2018-06-09T07:24:26.386Z,23.30
2018-06-09T07:26:55.762Z,23.40
2018-06-09T07:29:24.730Z,23.40
2018-06-09T07:31:53.761Z,23.40
2018-06-09T07:34:22.706Z,23.50
2018-06-09T07:36:51.660Z,23.50
2018-06-09T07:39:20.579Z,23.60
2018-06-09T07:41:49.724Z,23.70
2018-06-09T07:44:18.814Z,23.70
2018-06-09T07:46:47.819Z,23.70
2018-06-09T07:49:16.778Z,23.70
2018-06-09T07:51:45.761Z,23.70
2018-06-09T07:54:14.807Z,23.80
2018-06-09T07:56:43.960Z,23.80
2018-06-09T07:59:13.373Z,23.90
2018-06-09T08:01:42.489Z,24.10
2018-06-09T08:04:11.527Z,24.20
2018-06-09T08:06:40.474Z,24.20
2018-06-09T08:09:09.547Z,24.30
2018-06-09T08:11:38.631Z,24.30
2018-06-09T08:14:07.712Z,24.30
2018-06-09T08:16:36.676Z,24.40
2018-06-09T08:19:05.844Z,24.50
2018-06-09T08:21:37.243Z,24.60
2018-06-09T08:24:06.263Z,24.30
2018-06-09T08:26:35.257Z,24.20
2018-06-09T08:29:04.458Z,24.30
2018-06-09T08:31:33.543Z,24.20
2018-06-09T08:34:02.497Z,24.20
2018-06-09T08:36:31.628Z,24.20
2018-06-09T08:39:00.598Z,24.10
2018-06-09T08:41:29.672Z,24.10
2018-06-09T08:43:58.724Z,24.20
2018-06-09T08:46:27.703Z,24.30
2018-06-09T08:48:56.635Z,24.20
2018-06-09T08:51:26.269Z,24.20
2018-06-09T08:53:55.246Z,24.20
2018-06-09T08:56:24.371Z,24.30
2018-06-09T08:58:53.479Z,24.30
2018-06-09T09:01:22.595Z,24.40
2018-06-09T09:03:51.805Z,24.60
2018-06-09T09:06:20.729Z,24.70
2018-06-09T09:08:49.671Z,24.90
2018-06-09T09:11:18.658Z,24.90
2018-06-09T09:13:47.710Z,24.90
2018-06-09T09:16:16.707Z,25.00
2018-06-09T09:18:45.673Z,25.00
2018-06-09T09:21:14.790Z,25.10
2018-06-09T09:23:43.735Z,25.10
2018-06-09T09:26:13.066Z,25.30
2018-06-09T09:28:42.078Z,25.30
2018-06-09T09:31:11.040Z,25.40
2018-06-09T09:33:40.033Z,25.50
2018-06-09T09:36:09.298Z,25.50
2018-06-09T09:38:38.369Z,25.50
2018-06-09T09:41:07.610Z,25.60
2018-06-09T09:43:36.650Z,25.60
2018-06-09T09:46:05.618Z,25.80
2018-06-09T09:48:34.572Z,25.90
2018-06-09T09:51:03.530Z,25.90
2018-06-09T09:53:32.702Z,25.80
2018-06-09T09:56:01.743Z,25.80
2018-06-09T09:58:30.677Z,25.90
2018-06-09T10:00:59.795Z,25.80
2018-06-09T10:03:28.781Z,25.80
2018-06-09T10:05:57.786Z,25.80
2018-06-09T10:08:26.754Z,25.90
2018-06-09T10:10:55.777Z,25.90
2018-06-09T10:13:24.723Z,26.00
2018-06-09T10:15:53.678Z,26.00
2018-06-09T10:18:22.607Z,26.00
2018-06-09T10:20:51.556Z,26.10
2018-06-09T10:23:20.578Z,26.30
2018-06-09T10:25:49.594Z,26.30
2018-06-09T10:28:18.716Z,26.40
2018-06-09T10:30:47.666Z,26.40
2018-06-09T10:33:16.614Z,26.50
2018-06-09T10:35:45.542Z,26.50
2018-06-09T10:38:14.573Z,26.50
2018-06-09T10:40:43.476Z,26.70
2018-06-09T10:43:12.442Z,26.80
2018-06-09T10:50:38.410Z,26.80
2018-06-09T10:53:07.478Z,26.70
2018-06-09T10:55:36.466Z,26.60
2018-06-09T10:58:05.434Z,26.60
2018-06-09T11:00:34.454Z,26.60
2018-06-09T11:03:03.648Z,26.70
2018-06-09T11:05:32.697Z,26.80
2018-06-09T11:08:01.591Z,26.90
2018-06-09T11:10:30.552Z,27.10
2018-06-09T11:12:59.489Z,27.10
2018-06-09T11:15:28.441Z,27.30
2018-06-09T11:17:57.390Z,27.30
2018-06-09T11:20:26.507Z,27.20
2018-06-09T11:22:55.607Z,27.10
2018-06-09T11:25:24.716Z,27.10
2018-06-09T11:27:53.780Z,27.10
2018-06-09T11:30:22.750Z,27.10
2018-06-09T11:32:51.774Z,27.10
2018-06-09T11:35:20.838Z,27.30
2018-06-09T11:37:49.770Z,27.30
2018-06-09T11:40:18.729Z,27.30
2018-06-09T11:42:47.667Z,27.50
2018-06-09T11:45:16.644Z,27.50
2018-06-09T11:47:45.736Z,27.60
2018-06-09T11:50:14.861Z,27.70
2018-06-09T11:52:44.115Z,27.70
2018-06-09T11:55:13.211Z,27.70
2018-06-09T11:57:42.214Z,27.70
2018-06-09T12:00:11.108Z,27.60
2018-06-09T12:02:40.079Z,27.60
2018-06-09T12:05:09.213Z,27.70
2018-06-09T12:07:38.341Z,27.80
2018-06-09T12:10:07.210Z,28.00
2018-06-09T12:12:36.169Z,28.10
2018-06-09T12:15:05.519Z,27.80
2018-06-09T12:17:34.669Z,27.70
2018-06-09T12:20:04.012Z,27.60
2018-06-09T12:22:32.994Z,27.80
2018-06-09T12:25:02.120Z,27.90
2018-06-09T12:27:31.024Z,28.00
2018-06-09T12:30:00.038Z,28.00
2018-06-09T12:32:29.067Z,28.10
2018-06-09T12:34:57.967Z,28.20
2018-06-09T12:37:26.947Z,28.30
2018-06-09T12:39:55.897Z,28.40
2018-06-09T12:42:24.949Z,28.40
2018-06-09T12:44:54.055Z,28.50
2018-06-09T12:47:23.010Z,28.50
2018-06-09T12:49:51.990Z,28.60
2018-06-09T12:52:21.114Z,28.70
2018-06-09T12:54:50.460Z,28.90
2018-06-09T12:57:19.519Z,29.00
2018-06-09T12:59:48.491Z,29.10
2018-06-09T13:02:17.752Z,29.20
2018-06-09T13:04:46.722Z,29.30
2018-06-09T13:07:15.755Z,29.50
2018-06-09T13:09:44.874Z,29.50
2018-06-09T13:12:13.903Z,29.50
2018-06-09T13:14:42.835Z,29.50
2018-06-09T13:17:11.786Z,29.50
2018-06-09T13:19:40.793Z,29.50
2018-06-09T13:22:09.702Z,29.50
2018-06-09T13:24:38.702Z,29.60
2018-06-09T13:27:07.748Z,29.60
2018-06-09T13:29:36.938Z,29.60
2018-06-09T13:32:05.932Z,29.70
2018-06-09T13:34:35.076Z,29.40
2018-06-09T13:37:04.430Z,29.50
2018-06-09T13:39:33.383Z,29.60
2018-06-09T13:42:02.423Z,29.80
2018-06-09T13:44:31.758Z,29.80
2018-06-09T13:47:00.840Z,29.80
2018-06-09T13:49:29.961Z,29.80
2018-06-09T13:54:27.555Z,29.80
2018-06-09T13:56:56.456Z,29.80
2018-06-09T13:59:25.457Z,29.80
2018-06-09T14:01:54.490Z,29.80
2018-06-09T14:04:25.278Z,29.70
2018-06-09T14:06:54.645Z,29.70
2018-06-09T14:09:23.595Z,29.70
2018-06-09T14:11:52.820Z,29.70
2018-06-09T14:14:22.043Z,29.40
2018-06-09T14:16:51.048Z,29.50
2018-06-09T14:19:20.210Z,29.50
2018-06-09T14:21:49.193Z,29.50
2018-06-09T14:24:18.145Z,29.50
2018-06-09T14:26:47.378Z,29.50
2018-06-09T14:29:16.440Z,29.50
2018-06-09T14:31:45.734Z,29.40
2018-06-09T14:34:14.847Z,29.50
2018-06-09T14:36:43.806Z,29.50
2018-06-09T14:39:12.811Z,29.50
2018-06-09T14:44:10.439Z,29.50
2018-06-09T14:46:39.685Z,29.50
2018-06-09T14:49:08.678Z,29.60
2018-06-09T14:56:34.638Z,29.50
2018-06-09T14:59:03.821Z,29.50
2018-06-09T15:01:32.753Z,29.50
2018-06-09T15:04:01.718Z,29.50
2018-06-09T15:06:30.695Z,29.50
2018-06-09T15:08:59.697Z,29.60
2018-06-09T15:11:28.894Z,29.60
2018-06-09T15:13:57.812Z,29.60
2018-06-09T15:16:27.082Z,29.70
2018-06-09T15:18:56.269Z,29.70
2018-06-09T15:21:25.190Z,29.70
2018-06-09T15:23:54.196Z,29.70
2018-06-09T15:26:23.185Z,29.60
2018-06-09T15:28:52.160Z,29.70
2018-06-09T15:31:21.202Z,29.70
2018-06-09T15:33:50.194Z,29.70
2018-06-09T15:36:19.309Z,29.70
2018-06-09T15:38:48.329Z,29.70
2018-06-09T15:41:17.254Z,29.80
2018-06-09T15:43:46.289Z,29.80
2018-06-09T15:46:15.263Z,29.80
2018-06-09T15:48:44.413Z,29.70
2018-06-09T15:51:13.722Z,29.70
2018-06-09T15:53:42.850Z,29.60
2018-06-09T15:56:11.966Z,29.70
2018-06-09T16:01:09.434Z,29.70
2018-06-09T16:03:38.419Z,29.70
2018-06-09T16:06:07.342Z,29.70
2018-06-09T16:08:36.312Z,29.60
2018-06-09T16:13:33.749Z,29.50
2018-06-09T16:16:02.942Z,29.40
2018-06-09T16:18:32.074Z,29.30
2018-06-09T16:21:01.061Z,29.20
2018-06-09T16:23:30.356Z,29.20
2018-06-09T16:30:56.451Z,29.30
2018-06-09T16:33:25.654Z,29.30
2018-06-09T16:35:54.649Z,29.20
2018-06-09T16:38:23.852Z,29.20
2018-06-09T16:40:52.781Z,29.20
2018-06-09T16:43:21.762Z,29.20
2018-06-09T16:45:50.802Z,29.10
2018-06-09T16:48:19.745Z,29.10
2018-06-09T16:50:48.904Z,29.10
2018-06-09T16:53:18.252Z,29.10
2018-06-09T16:55:47.247Z,29.00
2018-06-09T17:00:45.554Z,29.00
2018-06-09T17:03:14.747Z,28.90
2018-06-09T17:05:43.870Z,28.90
2018-06-09T17:08:12.930Z,28.90
2018-06-09T17:10:42.052Z,28.80
2018-06-09T17:13:11.020Z,28.80
2018-06-09T17:18:08.541Z,28.70
2018-06-09T17:20:37.491Z,28.80
2018-06-09T17:23:06.757Z,28.70
2018-06-09T17:25:35.830Z,28.70
2018-06-09T17:28:05.167Z,28.80
2018-06-09T17:30:34.218Z,28.80
2018-06-09T17:33:03.975Z,28.80
2018-06-09T17:35:33.029Z,28.80
2018-06-09T17:38:01.996Z,28.80
2018-06-09T17:40:30.989Z,28.70
2018-06-09T17:42:59.907Z,28.70
2018-06-09T17:45:30.019Z,28.70
2018-06-09T17:47:58.982Z,28.70
2018-06-09T17:50:27.961Z,28.70
2018-06-09T17:52:56.900Z,28.70
2018-06-09T17:55:25.995Z,28.70
2018-06-09T17:57:55.090Z,28.60
2018-06-09T18:00:24.073Z,28.60
2018-06-09T18:02:53.235Z,28.60
2018-06-09T18:05:22.388Z,28.50
2018-06-09T18:07:51.370Z,28.50
2018-06-09T18:10:20.395Z,28.50
2018-06-09T18:12:49.406Z,28.40
2018-06-09T18:15:18.390Z,28.40
2018-06-09T18:17:47.333Z,28.40
2018-06-09T18:20:16.406Z,28.40
2018-06-09T18:22:45.551Z,28.20
2018-06-09T18:25:14.532Z,28.20
2018-06-09T18:27:43.665Z,28.20
2018-06-09T18:30:12.698Z,28.10
2018-06-09T18:32:41.704Z,28.10
2018-06-09T18:35:10.658Z,28.00
2018-06-09T18:37:39.786Z,28.00
2018-06-09T18:40:09.369Z,28.00
2018-06-09T18:42:38.342Z,27.90
2018-06-09T18:45:07.338Z,27.80
2018-06-09T18:47:36.429Z,27.80
2018-06-09T18:50:05.735Z,27.70
2018-06-09T18:52:34.694Z,27.70
2018-06-09T18:55:03.773Z,27.70
2018-06-09T18:57:32.805Z,27.70
2018-06-09T19:00:01.777Z,27.70
2018-06-09T19:02:30.806Z,27.70
2018-06-09T19:05:00.053Z,27.70
2018-06-09T19:07:29.054Z,27.60
2018-06-09T19:09:58.089Z,27.50
2018-06-09T19:12:27.109Z,27.50
2018-06-09T19:14:56.040Z,27.50
2018-06-09T19:17:25.141Z,27.50
2018-06-09T19:19:54.130Z,27.40
2018-06-09T19:22:23.155Z,27.40
2018-06-09T19:24:52.159Z,27.50
2018-06-09T19:27:21.193Z,27.40
2018-06-09T19:29:50.219Z,27.40
2018-06-09T19:32:19.161Z,27.40
2018-06-09T19:34:48.244Z,27.20
2018-06-09T19:37:17.289Z,27.20
2018-06-09T19:39:46.203Z,27.10
2018-06-09T19:42:15.158Z,27.10
2018-06-09T19:44:44.225Z,27.00
2018-06-09T19:47:13.260Z,27.00
2018-06-09T19:49:43.593Z,26.90
2018-06-09T19:52:12.558Z,26.90
2018-06-09T19:54:41.544Z,26.90
2018-06-09T19:57:10.480Z,26.80
2018-06-09T19:59:39.518Z,26.70
2018-06-09T20:02:08.446Z,26.50
2018-06-09T20:07:05.833Z,26.60
2018-06-09T20:09:34.922Z,26.60
2018-06-09T20:12:04.077Z,26.60
2018-06-09T20:14:33.065Z,26.50
2018-06-09T20:17:02.310Z,26.50
2018-06-09T20:19:31.249Z,26.50
2018-06-09T20:22:00.178Z,26.40
2018-06-09T20:24:29.242Z,26.40
2018-06-09T20:26:58.402Z,26.40
2018-06-09T20:29:27.646Z,26.40
2018-06-09T20:31:56.625Z,26.30
2018-06-09T20:34:25.773Z,26.40
2018-06-09T20:36:54.988Z,26.30
2018-06-09T20:39:24.165Z,26.30
2018-06-09T20:41:53.337Z,26.30
2018-06-09T20:44:22.312Z,26.30
2018-06-09T20:46:51.347Z,26.30
2018-06-09T20:49:20.423Z,26.20
2018-06-09T20:51:49.488Z,26.20
2018-06-09T20:54:18.457Z,26.10
2018-06-09T20:56:47.418Z,26.10
2018-06-09T20:59:16.390Z,26.10
2018-06-09T21:01:45.375Z,26.00
2018-06-09T21:04:14.542Z,26.00
2018-06-09T21:06:43.537Z,26.00
2018-06-09T21:09:12.530Z,25.90
2018-06-09T21:11:41.484Z,25.90
2018-06-09T21:14:10.546Z,25.80
2018-06-09T21:16:39.525Z,25.80
2018-06-09T21:19:08.556Z,25.70
2018-06-09T21:21:37.984Z,25.70
2018-06-09T21:24:07.024Z,25.70
2018-06-09T21:26:36.535Z,25.60
2018-06-09T21:29:05.562Z,25.50
2018-06-09T21:31:34.586Z,25.50
2018-06-09T21:34:14.973Z,25.50
2018-06-09T21:36:44.066Z,25.50
2018-06-09T21:39:13.007Z,25.50
2018-06-09T21:44:11.925Z,25.30
2018-06-09T21:46:41.103Z,25.30
2018-06-09T21:49:10.058Z,25.30
2018-06-09T21:51:39.354Z,25.30
2018-06-09T21:54:08.278Z,25.20
2018-06-09T21:56:37.568Z,25.20
2018-06-09T21:59:06.686Z,25.10
2018-06-09T22:01:35.881Z,25.10
2018-06-09T22:04:04.918Z,25.00
2018-06-09T22:06:33.975Z,24.90
2018-06-09T22:09:03.418Z,24.80
2018-06-09T22:11:32.462Z,24.70
2018-06-09T22:14:01.652Z,24.60
2018-06-09T22:16:30.677Z,24.50
2018-06-09T22:18:59.723Z,24.40
2018-06-09T22:21:28.675Z,24.40
2018-06-09T22:23:57.741Z,24.40
2018-06-09T22:26:26.843Z,24.40
2018-06-09T22:28:56.105Z,24.40
2018-06-09T22:31:25.073Z,24.40
2018-06-09T22:33:54.125Z,24.40
2018-06-09T22:36:23.090Z,24.30
2018-06-09T22:38:52.211Z,24.40
2018-06-09T22:41:21.146Z,24.30
2018-06-09T22:43:50.089Z,24.30
2018-06-09T22:46:19.083Z,24.30
2018-06-09T22:48:47.986Z,24.30
2018-06-09T22:51:17.147Z,24.20
2018-06-09T22:53:46.151Z,24.20
2018-06-09T22:56:15.170Z,24.20
2018-06-09T22:58:44.139Z,24.20
2018-06-09T23:01:13.105Z,24.20
2018-06-09T23:03:42.210Z,24.20
2018-06-09T23:06:11.142Z,24.20
2018-06-09T23:08:41.075Z,24.20
2018-06-09T23:11:10.034Z,24.10
2018-06-09T23:13:39.174Z,24.20
2018-06-09T23:16:08.290Z,24.20
2018-06-09T23:18:37.248Z,24.20
2018-06-09T23:21:06.375Z,24.20
2018-06-09T23:23:35.354Z,24.10
2018-06-09T23:26:04.381Z,24.10
2018-06-09T23:28:35.418Z,24.00
2018-06-09T23:31:04.474Z,23.80
2018-06-09T23:33:33.406Z,23.80
2018-06-09T23:38:30.974Z,23.40
2018-06-09T23:45:56.874Z,23.30
2018-06-09T23:48:25.825Z,23.40
2018-06-09T23:50:54.878Z,23.50
2018-06-09T23:53:23.931Z,23.50
2018-06-09T23:55:53.090Z,23.40
2018-06-09T23:58:22.111Z,23.50
